createdAt,value
2023-01-10T00:01:45.772Z,97768.34
2023-01-10T00:04:13.391Z,97763.41
2023-01-10T00:06:40.617Z,97765.81
2023-01-10T00:09:08.079Z,97765.13
2023-01-10T00:11:54.399Z,97773.03
2023-01-10T00:14:21.576Z,97762.16
2023-01-10T00:16:49.023Z,97761.66
2023-01-10T00:19:16.182Z,97758.56
2023-01-10T00:21:43.326Z,97760.44
2023-01-10T00:24:18.910Z,97762.63
2023-01-10T00:26:50.982Z,97762.25
2023-01-10T00:29:22.325Z,97750.59
2023-01-10T00:31:49.493Z,97745.66
2023-01-10T00:34:21.162Z,97744.59
2023-01-10T00:36:51.751Z,97740.56
2023-01-10T00:39:21.895Z,97735.38
2023-01-10T00:42:07.810Z,97741.59
2023-01-10T00:44:34.965Z,97741.16
2023-01-10T00:47:02.400Z,97749.03
2023-01-10T00:49:29.538Z,97747.94
2023-01-10T00:51:58.354Z,97759.41
2023-01-10T00:54:25.933Z,97747.78
2023-01-10T00:56:53.068Z,97750.44
2023-01-10T00:59:20.275Z,97752.81
2023-01-10T01:01:47.811Z,97759.56
2023-01-10T01:04:15.126Z,97747.00
2023-01-10T01:06:45.919Z,97744.50
2023-01-10T01:09:13.669Z,97743.16
2023-01-10T01:11:40.922Z,97741.25
2023-01-10T01:14:08.064Z,97754.00
2023-01-10T01:16:35.517Z,97751.34
2023-01-10T01:19:02.749Z,97756.09
2023-01-10T01:21:29.898Z,97750.59
2023-01-10T01:23:57.318Z,97749.53
2023-01-10T01:26:24.817Z,97746.72
2023-01-10T01:28:51.999Z,97751.22
2023-01-10T01:31:19.538Z,97750.09
2023-01-10T01:33:47.967Z,97745.03
2023-01-10T01:36:15.106Z,97746.56
2023-01-10T01:38:42.591Z,97748.81
2023-01-10T01:41:29.751Z,97752.87
2023-01-10T01:44:01.408Z,97746.41
2023-01-10T01:46:28.761Z,97742.94
2023-01-10T01:48:55.977Z,97749.59
2023-01-10T01:51:25.428Z,97743.69
2023-01-10T01:53:54.128Z,97758.38
2023-01-10T01:56:21.269Z,97754.69
2023-01-10T01:58:53.611Z,97752.19
2023-01-10T02:01:21.890Z,97760.63
2023-01-10T02:03:51.929Z,97758.38
2023-01-10T02:06:19.679Z,97766.66
2023-01-10T02:09:02.080Z,97782.31
2023-01-10T02:11:29.538Z,97774.59
2023-01-10T02:13:56.719Z,97785.13
2023-01-10T02:16:23.955Z,97795.63
2023-01-10T02:18:51.366Z,97794.03
2023-01-10T02:21:44.800Z,97788.53
2023-01-10T02:24:12.164Z,97789.09
2023-01-10T02:26:45.049Z,97783.53
2023-01-10T02:29:12.434Z,97772.59
2023-01-10T02:31:57.940Z,97767.69
2023-01-10T02:34:45.459Z,97769.03
2023-01-10T02:37:13.963Z,97768.91
2023-01-10T02:39:59.299Z,97770.56
2023-01-10T02:42:29.427Z,97771.50
2023-01-10T02:45:15.734Z,97773.75
2023-01-10T02:47:42.901Z,97766.72
2023-01-10T02:50:19.258Z,97757.47
2023-01-10T02:52:46.396Z,97765.28
2023-01-10T02:55:13.864Z,97772.31
2023-01-10T02:57:50.665Z,97775.47
2023-01-10T03:00:24.625Z,97771.72
2023-01-10T03:03:01.268Z,97776.13
2023-01-10T03:05:46.718Z,97786.97
2023-01-10T03:08:15.012Z,97789.72
2023-01-10T03:10:48.152Z,97787.34
2023-01-10T03:13:23.042Z,97790.41
2023-01-10T03:15:50.497Z,97788.44
2023-01-10T03:18:22.346Z,97788.66
2023-01-10T03:20:49.668Z,97787.72
2023-01-10T03:23:17.178Z,97789.75
2023-01-10T03:25:44.462Z,97787.22
2023-01-10T03:28:19.197Z,97788.88
2023-01-10T03:30:48.914Z,97794.97
2023-01-10T03:33:17.376Z,97806.37
2023-01-10T03:35:53.737Z,97806.84
2023-01-10T03:38:23.298Z,97802.72
2023-01-10T03:40:56.097Z,97794.56
2023-01-10T03:43:46.370Z,97808.03
2023-01-10T03:46:26.307Z,97803.50
2023-01-10T03:48:53.959Z,97793.72
2023-01-10T03:51:21.139Z,97807.28
2023-01-10T03:53:48.357Z,97802.34
2023-01-10T03:56:15.837Z,97810.56
2023-01-10T03:58:43.031Z,97808.56
2023-01-10T04:01:10.279Z,97812.81
2023-01-10T04:03:37.837Z,97817.88
2023-01-10T04:06:05.181Z,97823.34
2023-01-10T04:08:32.362Z,97823.09
2023-01-10T04:10:59.853Z,97834.63
2023-01-10T04:13:27.019Z,97827.81
2023-01-10T04:15:54.219Z,97832.91
2023-01-10T04:18:21.748Z,97821.09
2023-01-10T04:20:50.672Z,97814.31
2023-01-10T04:23:19.314Z,97803.44
2023-01-10T04:25:47.306Z,97797.09
2023-01-10T04:28:14.459Z,97793.94
2023-01-10T04:30:41.647Z,97798.53
2023-01-10T04:33:10.395Z,97799.25
2023-01-10T04:35:37.503Z,97812.97
2023-01-10T04:38:04.671Z,97822.75
2023-01-10T04:40:32.104Z,97823.38
2023-01-10T04:42:59.258Z,97829.37
2023-01-10T04:45:26.518Z,97832.94
2023-01-10T04:47:56.195Z,97840.66
2023-01-10T04:50:23.898Z,97845.50
2023-01-10T04:52:51.027Z,97846.00
2023-01-10T04:55:18.569Z,97856.91
2023-01-10T04:57:45.724Z,97854.78
2023-01-10T05:00:13.186Z,97866.50
2023-01-10T05:02:44.192Z,97866.28
2023-01-10T05:05:12.308Z,97871.44
2023-01-10T05:07:39.702Z,97880.22
2023-01-10T05:10:08.064Z,97875.63
2023-01-10T05:12:35.230Z,97877.00
2023-01-10T05:15:02.575Z,97883.28
2023-01-10T05:17:29.986Z,97887.44
2023-01-10T05:19:57.134Z,97900.22
2023-01-10T05:22:25.545Z,97905.44
2023-01-10T05:24:54.654Z,97904.59
2023-01-10T05:27:21.917Z,97903.69
2023-01-10T05:29:49.685Z,97906.31
2023-01-10T05:32:17.168Z,97914.06
2023-01-10T05:34:44.426Z,97903.72
2023-01-10T05:37:11.638Z,97906.25
2023-01-10T05:39:40.115Z,97911.44
2023-01-10T05:42:07.284Z,97900.22
2023-01-10T05:44:34.687Z,97908.88
2023-01-10T05:47:02.159Z,97900.97
2023-01-10T05:49:29.354Z,97908.03
2023-01-10T05:51:56.616Z,97910.53
2023-01-10T05:54:24.049Z,97913.16
2023-01-10T05:56:51.185Z,97915.75
2023-01-10T05:59:28.180Z,97916.62
2023-01-10T06:01:56.149Z,97919.66
2023-01-10T06:04:23.584Z,97924.38
2023-01-10T06:06:50.726Z,97933.03
2023-01-10T06:09:19.466Z,97946.81
2023-01-10T06:11:46.906Z,97940.38
2023-01-10T06:14:19.055Z,97938.84
2023-01-10T06:16:47.118Z,97950.72
2023-01-10T06:19:14.344Z,97960.50
2023-01-10T06:21:41.782Z,97967.47
2023-01-10T06:24:09.375Z,97966.66
2023-01-10T06:26:36.493Z,97973.41
2023-01-10T06:29:03.615Z,97981.22
2023-01-10T06:31:33.509Z,97984.72
2023-01-10T06:34:00.730Z,97993.34
2023-01-10T06:36:27.920Z,97996.41
2023-01-10T06:38:55.342Z,98001.03
2023-01-10T06:41:22.592Z,97991.28
2023-01-10T06:43:49.741Z,98006.09
2023-01-10T06:46:17.790Z,98003.63
2023-01-10T06:48:45.667Z,97985.56
2023-01-10T06:51:13.454Z,97999.22
2023-01-10T06:53:40.998Z,98000.16
2023-01-10T06:56:09.622Z,97998.47
2023-01-10T06:58:38.747Z,98017.97
2023-01-10T07:01:07.149Z,98025.06
2023-01-10T07:03:34.523Z,98028.63
2023-01-10T07:06:02.476Z,98030.28
2023-01-10T07:08:29.940Z,98037.19
2023-01-10T07:10:58.037Z,98052.69
2023-01-10T07:13:25.193Z,98063.63
2023-01-10T07:15:52.639Z,98070.53
2023-01-10T07:18:19.808Z,98082.56
2023-01-10T07:20:47.959Z,98082.84
2023-01-10T07:23:15.409Z,98091.53
2023-01-10T07:25:42.550Z,98087.63
2023-01-10T07:28:09.721Z,98094.72
2023-01-10T07:30:37.696Z,98105.38
2023-01-10T07:33:06.311Z,98097.19
2023-01-10T07:35:33.704Z,98100.22
2023-01-10T07:38:03.173Z,98101.09
2023-01-10T07:40:30.366Z,98109.59
2023-01-10T07:42:58.017Z,98113.84
2023-01-10T07:45:27.066Z,98123.94
2023-01-10T07:47:57.736Z,98124.25
2023-01-10T07:50:25.005Z,98140.56
2023-01-10T07:52:52.440Z,98142.47
2023-01-10T07:55:19.750Z,98144.09
2023-01-10T07:57:46.991Z,98144.22
2023-01-10T08:00:14.736Z,98154.56
2023-01-10T08:02:42.199Z,98163.84
2023-01-10T08:05:09.508Z,98164.03
2023-01-10T08:07:36.696Z,98167.22
2023-01-10T08:10:07.367Z,98178.47
2023-01-10T08:12:34.622Z,98183.03
2023-01-10T08:15:01.743Z,98190.16
2023-01-10T08:17:29.188Z,98187.66
2023-01-10T08:19:56.358Z,98202.25
2023-01-10T08:22:23.543Z,98210.47
2023-01-10T08:24:50.935Z,98228.53
2023-01-10T08:27:18.116Z,98232.16
2023-01-10T08:29:45.244Z,98232.97
2023-01-10T08:32:12.664Z,98238.28
2023-01-10T08:34:39.812Z,98245.12
2023-01-10T08:37:06.992Z,98239.91
2023-01-10T08:39:35.431Z,98249.03
2023-01-10T08:42:02.804Z,98244.91
2023-01-10T08:44:29.944Z,98249.88
2023-01-10T08:46:57.417Z,98246.53
2023-01-10T08:49:24.575Z,98260.59
2023-01-10T08:51:51.716Z,98261.41
2023-01-10T08:54:19.142Z,98254.34
2023-01-10T08:56:46.392Z,98272.59
2023-01-10T08:59:15.822Z,98273.97
2023-01-10T09:01:43.350Z,98276.78
2023-01-10T09:04:10.575Z,98279.06
2023-01-10T09:06:37.896Z,98287.94
2023-01-10T09:09:05.368Z,98295.72
2023-01-10T09:11:32.516Z,98302.41
2023-01-10T09:13:59.773Z,98312.31
2023-01-10T09:16:27.233Z,98313.09
2023-01-10T09:18:55.791Z,98314.81
2023-01-10T09:21:22.944Z,98333.91
2023-01-10T09:23:50.366Z,98333.03
2023-01-10T09:26:17.533Z,98336.28
2023-01-10T09:28:45.083Z,98348.19
2023-01-10T09:31:13.100Z,98351.69
2023-01-10T09:33:47.202Z,98349.88
2023-01-10T09:36:15.767Z,98353.00
2023-01-10T09:38:43.273Z,98366.41
2023-01-10T09:41:16.243Z,98372.59
2023-01-10T09:43:43.652Z,98382.41
2023-01-10T09:46:13.960Z,98386.75
2023-01-10T09:48:59.774Z,98381.72
2023-01-10T09:51:30.443Z,98387.34
2023-01-10T09:54:10.721Z,98402.47
2023-01-10T09:56:40.695Z,98398.13
2023-01-10T09:59:21.398Z,98403.78
2023-01-10T10:01:49.052Z,98404.22
2023-01-10T10:04:19.977Z,98407.00
2023-01-10T10:06:50.643Z,98412.88
2023-01-10T10:09:26.551Z,98407.44
2023-01-10T10:11:59.683Z,98409.75
2023-01-10T10:14:30.158Z,98404.91
2023-01-10T10:17:01.317Z,98419.59
2023-01-10T10:19:32.181Z,98406.94
2023-01-10T10:21:59.385Z,98416.25
2023-01-10T10:24:45.083Z,98419.97
2023-01-10T10:27:27.438Z,98411.31
2023-01-10T10:30:21.021Z,98405.94
2023-01-10T10:33:00.491Z,98419.25
2023-01-10T10:35:29.849Z,98423.19
2023-01-10T10:37:58.855Z,98419.41
2023-01-10T10:40:27.001Z,98424.00
2023-01-10T10:42:55.488Z,98442.62
2023-01-10T10:45:29.436Z,98433.97
2023-01-10T10:47:57.685Z,98441.06
2023-01-10T10:50:34.564Z,98443.03
2023-01-10T10:53:02.206Z,98451.53
2023-01-10T10:55:30.742Z,98449.44
2023-01-10T10:58:01.363Z,98461.94
2023-01-10T11:00:29.264Z,98457.81
2023-01-10T11:03:11.629Z,98463.72
2023-01-10T11:05:42.999Z,98459.91
2023-01-10T11:08:12.666Z,98477.44
2023-01-10T11:10:40.458Z,98472.50
2023-01-10T11:13:16.864Z,98481.28
2023-01-10T11:15:46.530Z,98488.03
2023-01-10T11:18:17.681Z,98483.59
2023-01-10T11:20:51.363Z,98491.94
2023-01-10T11:23:48.451Z,98514.63
2023-01-10T11:26:34.660Z,98500.09
2023-01-10T11:29:04.901Z,98496.38
2023-01-10T11:31:32.527Z,98513.34
2023-01-10T11:33:59.753Z,98508.47
2023-01-10T11:36:26.989Z,98532.84
2023-01-10T11:39:01.878Z,98521.78
2023-01-10T11:41:34.152Z,98518.09
2023-01-10T11:44:18.494Z,98528.41
2023-01-10T11:46:45.905Z,98524.97
2023-01-10T11:49:19.492Z,98532.41
2023-01-10T11:51:47.917Z,98530.59
2023-01-10T11:54:21.927Z,98546.38
2023-01-10T11:57:00.301Z,98532.38
2023-01-10T11:59:28.167Z,98539.63
2023-01-10T12:02:00.496Z,98529.37
2023-01-10T12:04:29.066Z,98543.38
2023-01-10T12:06:58.063Z,98542.72
2023-01-10T12:09:32.730Z,98547.31
2023-01-10T12:12:04.471Z,98560.63
2023-01-10T12:14:31.821Z,98570.25
2023-01-10T12:16:59.791Z,98571.09
2023-01-10T12:19:27.298Z,98562.31
2023-01-10T12:21:54.431Z,98564.78
2023-01-10T12:24:25.852Z,98584.03
2023-01-10T12:26:53.974Z,98587.78
2023-01-10T12:29:22.072Z,98582.66
2023-01-10T12:31:49.825Z,98592.38
2023-01-10T12:34:20.144Z,98596.81
2023-01-10T12:37:06.122Z,98594.66
2023-01-10T12:39:37.228Z,98599.13
2023-01-10T12:42:25.969Z,98599.72
2023-01-10T12:44:55.681Z,98604.88
2023-01-10T12:47:30.915Z,98616.22
2023-01-10T12:50:13.408Z,98632.03
2023-01-10T12:52:49.093Z,98626.81
2023-01-10T12:55:17.323Z,98635.59
2023-01-10T12:57:46.492Z,98642.28
2023-01-10T13:00:17.455Z,98630.94
2023-01-10T13:02:45.436Z,98627.75
2023-01-10T13:05:15.308Z,98636.09
2023-01-10T13:07:42.495Z,98630.19
2023-01-10T13:10:13.770Z,98636.50
2023-01-10T13:12:40.994Z,98636.66
2023-01-10T13:15:24.568Z,98644.16
2023-01-10T13:17:53.978Z,98634.00
2023-01-10T13:20:24.611Z,98647.38
2023-01-10T13:22:52.738Z,98655.81
2023-01-10T13:25:22.969Z,98654.44
2023-01-10T13:27:56.981Z,98662.38
2023-01-10T13:30:29.378Z,98666.19
2023-01-10T13:33:00.985Z,98674.53
2023-01-10T13:35:29.487Z,98679.84
2023-01-10T13:37:56.761Z,98688.16
2023-01-10T13:40:27.397Z,98684.50
2023-01-10T13:43:20.055Z,98696.34
2023-01-10T13:45:47.255Z,98704.47
2023-01-10T13:48:24.579Z,98713.47
2023-01-10T13:50:52.729Z,98718.41
2023-01-10T13:53:20.250Z,98716.53
2023-01-10T13:55:53.499Z,98717.66
2023-01-10T13:58:42.663Z,98724.25
2023-01-10T14:01:47.222Z,98718.72
2023-01-10T14:04:18.735Z,98729.00
2023-01-10T14:06:46.054Z,98729.78
2023-01-10T14:09:13.246Z,98735.59
2023-01-10T14:11:43.416Z,98744.50
2023-01-10T14:14:26.085Z,98745.97
2023-01-10T14:16:54.145Z,98751.41
2023-01-10T14:19:33.661Z,98750.31
2023-01-10T14:22:01.916Z,98752.41
2023-01-10T14:24:30.763Z,98756.94
2023-01-10T14:27:01.177Z,98761.81
2023-01-10T14:29:31.538Z,98774.34
2023-01-10T14:31:59.510Z,98773.97
2023-01-10T14:34:30.685Z,98775.47
2023-01-10T14:36:58.920Z,98792.06
2023-01-10T14:39:26.484Z,98795.00
2023-01-10T14:41:54.707Z,98803.87
2023-01-10T14:44:33.091Z,98803.78
2023-01-10T14:47:04.541Z,98819.41
2023-01-10T14:49:35.891Z,98826.41
2023-01-10T14:52:12.219Z,98829.47
2023-01-10T14:54:39.673Z,98823.81
2023-01-10T14:57:15.845Z,98826.56
2023-01-10T14:59:44.299Z,98823.22
2023-01-10T15:02:18.443Z,98825.34
2023-01-10T15:04:51.976Z,98832.34
2023-01-10T15:07:22.725Z,98824.72
2023-01-10T15:09:50.835Z,98837.16
2023-01-10T15:12:18.453Z,98846.06
2023-01-10T15:14:45.624Z,98832.03
2023-01-10T15:17:20.557Z,98839.66
2023-01-10T15:19:48.611Z,98842.94
2023-01-10T15:22:17.250Z,98851.25
2023-01-10T15:24:44.428Z,98851.69
2023-01-10T15:27:13.303Z,98864.38
2023-01-10T15:29:44.863Z,98867.38
2023-01-10T15:32:12.540Z,98873.00
2023-01-10T15:34:39.853Z,98886.13
2023-01-10T15:37:07.443Z,98893.56
2023-01-10T15:39:35.959Z,98887.91
2023-01-10T15:42:11.979Z,98882.06
2023-01-10T15:44:44.892Z,98888.37
2023-01-10T15:47:27.413Z,98896.56
2023-01-10T15:49:54.922Z,98908.34
2023-01-10T15:52:22.642Z,98918.63
2023-01-10T15:54:49.932Z,98908.50
2023-01-10T15:57:30.353Z,98920.47
2023-01-10T15:59:58.959Z,98904.28
2023-01-10T16:02:30.909Z,98915.25
2023-01-10T16:04:59.222Z,98911.53
2023-01-10T16:07:30.216Z,98919.63
2023-01-10T16:09:58.944Z,98924.50
2023-01-10T16:12:58.578Z,98926.22
2023-01-10T16:15:26.833Z,98939.13
2023-01-10T16:17:54.427Z,98943.34
2023-01-10T16:20:22.548Z,98945.78
2023-01-10T16:22:49.900Z,98941.81
2023-01-10T16:25:28.466Z,98955.19
2023-01-10T16:27:56.393Z,98956.16
2023-01-10T16:30:25.016Z,98941.25
2023-01-10T16:32:52.260Z,98957.84
2023-01-10T16:35:20.231Z,98961.19
2023-01-10T16:37:48.976Z,98964.34
2023-01-10T16:40:36.490Z,98965.34
2023-01-10T16:43:19.357Z,98967.09
2023-01-10T16:45:48.341Z,98963.91
2023-01-10T16:48:16.148Z,98982.97
2023-01-10T16:50:43.494Z,98986.81
2023-01-10T16:53:11.891Z,98981.38
2023-01-10T16:55:41.557Z,98986.78
2023-01-10T16:58:09.269Z,98994.16
2023-01-10T17:00:36.797Z,99002.56
2023-01-10T17:03:05.608Z,98990.72
2023-01-10T17:05:34.311Z,99000.03
2023-01-10T17:08:01.695Z,98999.72
2023-01-10T17:10:29.990Z,99012.72
2023-01-10T17:12:57.167Z,99014.50
2023-01-10T17:15:24.474Z,99020.84
2023-01-10T17:17:51.952Z,99025.75
2023-01-10T17:20:19.293Z,99029.41
2023-01-10T17:22:46.426Z,99034.38
2023-01-10T17:25:15.904Z,99029.41
2023-01-10T17:27:44.632Z,99028.06
2023-01-10T17:30:12.133Z,99032.41
2023-01-10T17:32:39.658Z,99035.94
2023-01-10T17:35:07.158Z,99050.16
2023-01-10T17:37:34.761Z,99050.13
2023-01-10T17:40:02.793Z,99055.66
2023-01-10T17:42:31.061Z,99061.97
2023-01-10T17:44:58.236Z,99065.00
2023-01-10T17:47:25.673Z,99075.12
2023-01-10T17:49:53.340Z,99063.87
2023-01-10T17:52:20.532Z,99066.69
2023-01-10T17:54:47.960Z,99069.03
2023-01-10T17:57:16.045Z,99066.72
2023-01-10T17:59:43.237Z,99067.19
2023-01-10T18:02:15.168Z,99067.19
2023-01-10T18:04:42.909Z,99073.13
2023-01-10T18:07:11.809Z,99071.19
2023-01-10T18:09:40.156Z,99072.50
2023-01-10T18:12:07.850Z,99076.78
2023-01-10T18:14:38.169Z,99085.97
2023-01-10T18:17:06.857Z,99074.28
2023-01-10T18:19:35.136Z,99084.38
2023-01-10T18:22:23.526Z,99085.41
2023-01-10T18:24:54.216Z,99086.91
2023-01-10T18:27:22.492Z,99084.19
2023-01-10T18:29:50.672Z,99086.13
2023-01-10T18:32:18.900Z,99074.44
2023-01-10T18:34:47.223Z,99082.16
2023-01-10T18:37:15.634Z,99092.59
2023-01-10T18:39:47.528Z,99091.53
2023-01-10T18:42:15.623Z,99095.91
2023-01-10T18:44:43.463Z,99101.09
2023-01-10T18:47:11.012Z,99101.81
2023-01-10T18:49:39.782Z,99110.22
2023-01-10T18:52:07.816Z,99107.88
2023-01-10T18:54:35.549Z,99109.53
2023-01-10T18:57:02.878Z,99118.91
2023-01-10T18:59:30.826Z,99109.97
2023-01-10T19:01:58.527Z,99116.78
2023-01-10T19:04:27.307Z,99122.97
2023-01-10T19:06:56.764Z,99116.50
2023-01-10T19:09:26.385Z,99118.91
2023-01-10T19:11:53.919Z,99117.19
2023-01-10T19:14:21.486Z,99120.38
2023-01-10T19:16:49.416Z,99122.66
2023-01-10T19:19:16.951Z,99131.34
2023-01-10T19:21:45.246Z,99122.50
2023-01-10T19:24:22.158Z,99127.25
2023-01-10T19:26:50.957Z,99118.59
2023-01-10T19:29:18.577Z,99134.25
2023-01-10T19:31:48.316Z,99130.28
2023-01-10T19:34:16.755Z,99140.47
2023-01-10T19:36:45.504Z,99132.37
2023-01-10T19:39:13.538Z,99147.13
2023-01-10T19:41:41.313Z,99141.69
2023-01-10T19:44:12.732Z,99147.72
2023-01-10T19:46:40.726Z,99148.19
2023-01-10T19:49:13.644Z,99153.47
2023-01-10T19:51:41.522Z,99148.88
2023-01-10T19:54:09.708Z,99169.72
2023-01-10T19:56:37.297Z,99159.53
2023-01-10T19:59:05.260Z,99157.97
2023-01-10T20:01:33.969Z,99159.31
2023-01-10T20:04:02.248Z,99160.97
2023-01-10T20:06:30.834Z,99173.28
2023-01-10T20:08:58.583Z,99168.03
2023-01-10T20:11:27.243Z,99174.56
2023-01-10T20:13:55.025Z,99173.28
2023-01-10T20:16:23.074Z,99181.88
2023-01-10T20:18:51.672Z,99168.19
2023-01-10T20:21:20.191Z,99182.47
2023-01-10T20:23:48.342Z,99177.84
2023-01-10T20:26:18.929Z,99180.50
2023-01-10T20:28:48.274Z,99181.22
2023-01-10T20:31:17.243Z,99191.56
2023-01-10T20:33:45.177Z,99191.09
2023-01-10T20:36:14.239Z,99190.75
2023-01-10T20:38:42.140Z,99190.50
2023-01-10T20:41:16.753Z,99211.81
2023-01-10T20:43:44.894Z,99214.66
2023-01-10T20:46:25.434Z,99207.69
2023-01-10T20:48:54.362Z,99205.50
2023-01-10T20:51:23.679Z,99210.97
2023-01-10T20:53:51.215Z,99224.00
2023-01-10T20:56:23.303Z,99231.91
2023-01-10T20:58:50.822Z,99240.28
2023-01-10T21:01:28.684Z,99238.66
2023-01-10T21:04:00.374Z,99233.28
2023-01-10T21:06:27.671Z,99229.19
2023-01-10T21:08:55.012Z,99225.28
2023-01-10T21:11:22.438Z,99222.00
2023-01-10T21:13:49.714Z,99218.56
2023-01-10T21:16:19.363Z,99226.28
2023-01-10T21:18:47.482Z,99222.50
2023-01-10T21:21:15.576Z,99225.16
2023-01-10T21:23:42.783Z,99222.81
2023-01-10T21:26:11.426Z,99217.22
2023-01-10T21:28:39.417Z,99219.19
2023-01-10T21:31:06.666Z,99206.53
2023-01-10T21:33:34.305Z,99221.56
2023-01-10T21:36:01.454Z,99223.87
2023-01-10T21:38:28.787Z,99218.31
2023-01-10T21:40:56.800Z,99230.94
2023-01-10T21:43:23.969Z,99229.56
2023-01-10T21:45:52.573Z,99219.47
2023-01-10T21:48:19.971Z,99221.47
2023-01-10T21:50:48.308Z,99233.38
2023-01-10T21:53:15.501Z,99230.56
2023-01-10T21:55:45.668Z,99229.78
2023-01-10T21:58:12.887Z,99226.41
2023-01-10T22:00:40.072Z,99224.31
2023-01-10T22:03:07.564Z,99226.78
2023-01-10T22:05:34.743Z,99230.81
2023-01-10T22:08:01.901Z,99213.53
2023-01-10T22:10:30.298Z,99211.44
2023-01-10T22:12:57.454Z,99213.97
2023-01-10T22:15:24.625Z,99211.06
2023-01-10T22:17:53.536Z,99217.22
2023-01-10T22:20:20.779Z,99214.78
2023-01-10T22:22:47.921Z,99205.38
2023-01-10T22:25:15.432Z,99226.47
2023-01-10T22:27:44.942Z,99219.09
2023-01-10T22:30:12.533Z,99222.50
2023-01-10T22:32:40.028Z,99219.81
2023-01-10T22:35:07.466Z,99219.09
2023-01-10T22:37:34.642Z,99213.53
2023-01-10T22:40:02.046Z,99214.50
2023-01-10T22:42:29.451Z,99207.25
2023-01-10T22:44:57.435Z,99201.50
2023-01-10T22:47:24.861Z,99207.78
2023-01-10T22:49:52.206Z,99213.09
2023-01-10T22:52:19.350Z,99216.37
2023-01-10T22:54:46.783Z,99210.28
2023-01-10T22:57:14.412Z,99206.22
2023-01-10T22:59:42.699Z,99210.09
2023-01-10T23:02:10.143Z,99203.75
2023-01-10T23:04:37.335Z,99201.47
2023-01-10T23:07:04.494Z,99206.41
2023-01-10T23:09:31.887Z,99214.00
2023-01-10T23:11:58.995Z,99220.69
2023-01-10T23:14:26.176Z,99211.19
2023-01-10T23:16:54.789Z,99203.34
2023-01-10T23:19:21.932Z,99203.72
2023-01-10T23:21:49.037Z,99208.56
2023-01-10T23:24:16.655Z,99201.81
2023-01-10T23:26:43.767Z,99206.16
2023-01-10T23:29:10.898Z,99205.19
2023-01-10T23:31:38.331Z,99208.84
2023-01-10T23:34:05.416Z,99217.44
2023-01-10T23:36:32.502Z,99206.88
2023-01-10T23:38:59.979Z,99214.41
2023-01-10T23:41:27.067Z,99206.16
2023-01-10T23:43:54.220Z,99209.50
2023-01-10T23:46:21.746Z,99204.25
2023-01-10T23:48:48.956Z,99213.34
2023-01-10T23:51:16.174Z,99201.72
2023-01-10T23:53:43.533Z,99198.75
2023-01-10T23:56:12.305Z,99203.59
2023-01-10T23:58:40.293Z,99217.56
